Weather at Phoenix Sky Harbor International Airport

Public forecast

Using degrees Fahrenheit for public forecast. Weather courtesy of forecast.io.

Current aviation weather report (METAR) for Phoenix Sky Harbor International Airport

Retrieved 2021/10/19 12:51 UTC (51 minutes ago):

KPHX 191251Z 10003KT 10SM FEW120 16/06 A2991 RMK AO2 SLP116 T01610061

Aviation forecast (TAF) for Phoenix Sky Harbor International Airport

Retrieved 2021/10/19 12:30 UTC (1 hour ago):

TAF KPHX 191128Z 1912/2018 12005KT P6SM FEW060 FM191700 16005KT P6SM FEW080 FEW120 FM191900 19006KT P6SM SKC FM192200 26006KT P6SM SKC FM200700 10005KT P6SM SCT200